Time;durP1;ratioP1;P1;durP2;ratioP2;P2;SDS_P1;SDS_P2;PMS_P1;PMS_P2;Temp;Humidity;BMP_temperature;BMP_pressure;BME280_temperature;BME280_humidity;BME280_pressure;Samples;Min_cycle;Max_cycle;Signal;HPM_P1;HPM_P2
2023/03/14 00:00:08;;;;;;;19.08;3.85;;;;;;;;;;5030987;28;20029;-26
2023/03/14 00:02:35;;;;;;;16.67;4.13;;;;;;;;;;5031278;28;20029;-27
2023/03/14 00:05:06;;;;;;;27.83;4.47;;;;;;;;;;5019369;28;20120;-27
2023/03/14 00:07:35;;;;;;;19.63;5.32;;;;;;;;;;5028808;28;20029;-27
2023/03/14 00:10:04;;;;;;;24.10;5.35;;;;;;;;;;5026821;28;20380;-26
2023/03/14 00:12:31;;;;;;;24.35;6.25;;;;;;;;;;5027692;28;20077;-28
2023/03/14 00:14:59;;;;;;;18.30;7.28;;;;;;;;;;5030622;28;20025;-26
2023/03/14 00:17:27;;;;;;;27.50;7.32;;;;;;;;;;5013558;28;20069;-26
2023/03/14 00:19:54;;;;;;;16.35;5.47;;;;;;;;;;5012593;28;20092;-26
2023/03/14 00:22:22;;;;;;;28.17;8.05;;;;;;;;;;5010713;28;20508;-26
2023/03/14 00:24:49;;;;;;;22.45;6.13;;;;;;;;;;5022331;28;20060;-29
2023/03/14 00:27:16;;;;;;;22.50;5.63;;;;;;;;;;5032505;28;20471;-29
2023/03/14 00:29:44;;;;;;;17.88;5.20;;;;;;;;;;5032322;28;20041;-26
2023/03/14 00:32:15;;;;;;;;;;;;;;;;;;5030171;28;20060;-26
2023/03/14 00:34:42;;;;;;;23.23;6.07;;;;;;;;;;5022476;28;19913;-26
2023/03/14 00:37:09;;;;;;;23.30;6.25;;;;;;;;;;5022137;28;20029;-30
2023/03/14 00:39:36;;;;;;;15.35;4.90;;;;;;;;;;5022530;28;20034;-26
2023/03/14 00:42:03;;;;;;;18.80;5.50;;;;;;;;;;5021011;28;20021;-29
2023/03/14 00:44:31;;;;;;;28.67;5.75;;;;;;;;;;5025874;28;20454;-26
2023/03/14 00:46:58;;;;;;;13.98;4.55;;;;;;;;;;5029094;28;20045;-28
2023/03/14 00:49:25;;;;;;;18.30;4.97;;;;;;;;;;5025179;28;20076;-28
2023/03/14 00:51:53;;;;;;;17.70;4.43;;;;;;;;;;5019220;28;20017;-26
2023/03/14 00:54:20;;;;;;;17.20;5.35;;;;;;;;;;5019275;28;20069;-29
2023/03/14 00:56:48;;;;;;;17.02;4.40;;;;;;;;;;5012389;28;20399;-29
2023/03/14 00:59:17;;;;;;;15.55;4.07;;;;;;;;;;5012360;28;20478;-29
2023/03/14 01:01:44;;;;;;;15.82;4.13;;;;;;;;;;5014554;28;20036;-29
2023/03/14 01:04:11;;;;;;;15.32;4.30;;;;;;;;;;5022500;28;20030;-29
2023/03/14 01:06:39;;;;;;;12.02;4.07;;;;;;;;;;5020965;28;20541;-28
2023/03/14 01:09:06;;;;;;;18.75;4.07;;;;;;;;;;5020998;28;20045;-29
2023/03/14 01:11:35;;;;;;;14.70;4.85;;;;;;;;;;5014792;28;20029;-30
2023/03/14 01:14:03;;;;;;;15.27;4.78;;;;;;;;;;5011742;28;20057;-29
2023/03/14 01:16:35;;;;;;;10.50;3.83;;;;;;;;;;5020829;28;20040;-26
2023/03/14 01:19:03;;;;;;;57.22;6.22;;;;;;;;;;5016638;28;20026;-27
2023/03/14 01:21:31;;;;;;;16.05;4.43;;;;;;;;;;5030252;28;20490;-25
2023/03/14 01:23:59;;;;;;;14.07;4.05;;;;;;;;;;5024995;28;20507;-27
2023/03/14 01:26:27;;;;;;;11.70;3.63;;;;;;;;;;5024316;28;20064;-27
2023/03/14 01:28:55;;;;;;;8.65;3.33;;;;;;;;;;5028432;28;20049;-29
2023/03/14 01:31:22;;;;;;;12.23;3.40;;;;;;;;;;5027588;28;20059;-27
2023/03/14 01:33:49;;;;;;;10.45;4.15;;;;;;;;;;5030815;28;20036;-25
2023/03/14 01:36:16;;;;;;;11.38;4.03;;;;;;;;;;5031177;28;20039;-25
2023/03/14 01:38:44;;;;;;;6.75;3.60;;;;;;;;;;5031182;28;20482;-25
2023/03/14 01:41:18;;;;;;;9.23;4.68;;;;;;;;;;5026045;28;20029;-28
2023/03/14 01:43:45;;;;;;;5.68;3.60;;;;;;;;;;5014317;28;20036;-27
2023/03/14 01:46:21;;;;;;;8.45;4.00;;;;;;;;;;5020701;28;20365;-25
2023/03/14 01:48:48;;;;;;;9.23;4.15;;;;;;;;;;5026736;28;20048;-27
2023/03/14 01:51:20;;;;;;;6.55;3.88;;;;;;;;;;5031127;28;20494;-28
2023/03/14 01:53:47;;;;;;;8.27;4.17;;;;;;;;;;5031229;28;20033;-27
2023/03/14 01:56:16;;;;;;;9.55;3.70;;;;;;;;;;5031302;28;20264;-25
2023/03/14 01:58:46;;;;;;;7.57;3.70;;;;;;;;;;5030044;28;20426;-25
2023/03/14 02:01:15;;;;;;;7.68;3.92;;;;;;;;;;5031402;28;20075;-24
2023/03/14 02:03:51;;;;;;;6.93;3.53;;;;;;;;;;5031462;28;20033;-28
2023/03/14 02:06:20;;;;;;;5.07;3.50;;;;;;;;;;5031416;28;20021;-27
2023/03/14 02:08:49;;;;;;;5.03;3.13;;;;;;;;;;5031295;28;20788;-28
2023/03/14 02:11:17;;;;;;;7.50;3.20;;;;;;;;;;5031155;28;20037;-27
2023/03/14 02:13:44;;;;;;;6.82;2.80;;;;;;;;;;5031176;28;20049;-27
2023/03/14 02:16:11;;;;;;;3.80;2.80;;;;;;;;;;5031260;28;20037;-27
2023/03/14 02:18:40;;;;;;;5.45;2.85;;;;;;;;;;5031273;28;20116;-27
2023/03/14 02:21:12;;;;;;;6.78;3.08;;;;;;;;;;5031164;28;20045;-27
2023/03/14 02:23:38;;;;;;;;;;;;;;;;;;5031661;28;20483;-27
2023/03/14 02:26:18;;;;;;;6.82;3.25;;;;;;;;;;5031315;28;20015;-27
2023/03/14 02:28:45;;;;;;;3.83;2.67;;;;;;;;;;5031182;28;20033;-28
2023/03/14 02:31:12;;;;;;;4.20;2.50;;;;;;;;;;5031176;28;20021;-27
2023/03/14 02:33:39;;;;;;;4.25;2.58;;;;;;;;;;5031211;28;20021;-27
2023/03/14 02:36:08;;;;;;;5.03;2.40;;;;;;;;;;5031134;28;20087;-27
2023/03/14 02:38:35;;;;;;;3.85;1.95;;;;;;;;;;5031188;28;20033;-27
2023/03/14 02:41:02;;;;;;;3.40;1.85;;;;;;;;;;5031110;28;20026;-27
2023/03/14 02:43:29;;;;;;;4.97;2.00;;;;;;;;;;5031112;28;20057;-27
2023/03/14 02:45:56;;;;;;;3.78;1.90;;;;;;;;;;5031143;28;20033;-27
2023/03/14 02:48:28;;;;;;;2.90;1.50;;;;;;;;;;5031825;28;20510;-27
2023/03/14 02:50:55;;;;;;;;;;;;;;;;;;5035016;28;20506;-27
2023/03/14 02:53:24;;;;;;;7.30;1.83;;;;;;;;;;5034632;28;19909;-27
2023/03/14 02:55:52;;;;;;;2.83;1.80;;;;;;;;;;5034573;28;20140;-27
2023/03/14 02:58:19;;;;;;;4.93;1.98;;;;;;;;;;5034563;28;20040;-27
2023/03/14 03:00:46;;;;;;;4.70;1.88;;;;;;;;;;5034435;28;20509;-28
2023/03/14 03:03:14;;;;;;;7.00;2.10;;;;;;;;;;5034412;28;20108;-27
2023/03/14 03:05:42;;;;;;;5.47;2.05;;;;;;;;;;5034356;28;20029;-27
2023/03/14 03:08:09;;;;;;;3.72;2.08;;;;;;;;;;5034106;28;20645;-28
2023/03/14 03:10:36;;;;;;;4.45;1.90;;;;;;;;;;5034161;28;20049;-28
2023/03/14 03:13:03;;;;;;;2.97;2.10;;;;;;;;;;5033985;28;20080;-27
2023/03/14 03:15:30;;;;;;;2.72;1.83;;;;;;;;;;5034203;28;20022;-27
2023/03/14 03:17:57;;;;;;;2.90;1.95;;;;;;;;;;5034161;28;20049;-27
2023/03/14 03:20:24;;;;;;;4.68;1.70;;;;;;;;;;5034152;28;20022;-27
2023/03/14 03:22:51;;;;;;;5.38;1.70;;;;;;;;;;5034111;28;20045;-27
2023/03/14 03:25:18;;;;;;;6.97;1.55;;;;;;;;;;5033987;28;20021;-27
2023/03/14 03:27:45;;;;;;;4.65;1.20;;;;;;;;;;5033836;28;20032;-27
2023/03/14 03:30:12;;;;;;;3.08;1.35;;;;;;;;;;5033798;28;20030;-27
2023/03/14 03:32:39;;;;;;;3.60;1.25;;;;;;;;;;5033973;28;20423;-28
2023/03/14 03:35:07;;;;;;;2.25;1.38;;;;;;;;;;5033942;28;20032;-27
2023/03/14 03:37:34;;;;;;;1.88;1.20;;;;;;;;;;5033823;28;20068;-28
2023/03/14 03:40:04;;;;;;;3.95;1.20;;;;;;;;;;5033677;28;20033;-27
2023/03/14 03:42:31;;;;;;;4.07;1.50;;;;;;;;;;5033738;28;20483;-27
2023/03/14 03:44:58;;;;;;;2.47;1.17;;;;;;;;;;5033727;28;20108;-27
2023/03/14 03:47:25;;;;;;;4.30;1.27;;;;;;;;;;5033720;28;20030;-27
2023/03/14 03:49:52;;;;;;;3.88;1.30;;;;;;;;;;5033427;28;20708;-27
2023/03/14 03:52:20;;;;;;;3.30;1.30;;;;;;;;;;5033471;28;20083;-27
2023/03/14 03:54:47;;;;;;;3.85;1.05;;;;;;;;;;5033449;28;20166;-27
2023/03/14 03:57:14;;;;;;;2.97;1.40;;;;;;;;;;5033530;28;20033;-24
2023/03/14 03:59:41;;;;;;;4.22;1.42;;;;;;;;;;5032994;28;20049;-25
2023/03/14 04:02:08;;;;;;;4.30;1.40;;;;;;;;;;5033343;28;20026;-24
2023/03/14 04:04:36;;;;;;;1.20;1.10;;;;;;;;;;5033327;28;20033;-24
2023/03/14 04:07:03;;;;;;;2.65;1.15;;;;;;;;;;5033299;28;20079;-25
2023/03/14 04:09:30;;;;;;;2.35;1.02;;;;;;;;;;5033393;28;20091;-25
2023/03/14 04:11:57;;;;;;;5.05;1.20;;;;;;;;;;5032848;28;20056;-26
2023/03/14 04:14:24;;;;;;;2.17;1.13;;;;;;;;;;5033191;28;20066;-24
2023/03/14 04:16:51;;;;;;;1.98;0.90;;;;;;;;;;5033133;28;20026;-25
2023/03/14 04:19:18;;;;;;;2.90;1.02;;;;;;;;;;5032982;28;20041;-24
2023/03/14 04:21:46;;;;;;;3.13;0.70;;;;;;;;;;5032949;28;20040;-24
2023/03/14 04:24:13;;;;;;;4.97;1.00;;;;;;;;;;5032883;28;20061;-25
2023/03/14 04:26:41;;;;;;;3.72;0.88;;;;;;;;;;5033011;28;20100;-25
2023/03/14 04:29:07;;;;;;;2.85;0.68;;;;;;;;;;5032756;28;20036;-25
2023/03/14 04:31:34;;;;;;;2.83;0.93;;;;;;;;;;5032665;28;20033;-25
2023/03/14 04:34:01;;;;;;;1.10;1.00;;;;;;;;;;5031424;28;20034;-25
2023/03/14 04:36:28;;;;;;;2.83;0.80;;;;;;;;;;5032783;28;20705;-25
2023/03/14 04:38:55;;;;;;;0.80;0.70;;;;;;;;;;5032724;28;20501;-25
2023/03/14 04:41:22;;;;;;;1.38;0.85;;;;;;;;;;5032563;28;20026;-25
2023/03/14 04:43:49;;;;;;;2.40;1.00;;;;;;;;;;5032556;28;20029;-24
2023/03/14 04:46:16;;;;;;;4.05;0.95;;;;;;;;;;5032487;28;20038;-25
2023/03/14 04:48:43;;;;;;;3.90;0.70;;;;;;;;;;5032443;28;20059;-24
2023/03/14 04:51:10;;;;;;;3.20;0.90;;;;;;;;;;5032398;28;20022;-24
2023/03/14 04:53:37;;;;;;;2.42;1.02;;;;;;;;;;5032483;28;20029;-25
2023/03/14 04:56:04;;;;;;;2.35;0.90;;;;;;;;;;5032223;28;20086;-24
2023/03/14 04:58:31;;;;;;;2.30;0.95;;;;;;;;;;5030953;28;20399;-24
2023/03/14 05:01:03;;;;;;;1.55;0.80;;;;;;;;;;5032100;28;20045;-26
2023/03/14 05:03:30;;;;;;;1.67;0.70;;;;;;;;;;5032172;28;20025;-29
2023/03/14 05:05:58;;;;;;;1.65;0.90;;;;;;;;;;5032180;28;20029;-27
2023/03/14 05:08:25;;;;;;;4.40;1.15;;;;;;;;;;5031954;28;20125;-27
2023/03/14 05:10:53;;;;;;;3.42;1.60;;;;;;;;;;5032039;28;20029;-28
2023/03/14 05:13:20;;;;;;;2.08;1.20;;;;;;;;;;5031021;28;20045;-27
2023/03/14 05:15:47;;;;;;;2.47;1.50;;;;;;;;;;5032076;28;20044;-27
2023/03/14 05:18:14;;;;;;;2.33;1.60;;;;;;;;;;5032052;28;20091;-27
2023/03/14 05:20:43;;;;;;;2.30;1.10;;;;;;;;;;5031847;28;20068;-27
2023/03/14 05:23:10;;;;;;;4.15;1.10;;;;;;;;;;5031887;28;20498;-27
2023/03/14 05:25:37;;;;;;;1.58;1.10;;;;;;;;;;5031959;28;20116;-27
2023/03/14 05:28:04;;;;;;;2.25;1.23;;;;;;;;;;5031788;28;20030;-24
2023/03/14 05:30:32;;;;;;;6.55;1.33;;;;;;;;;;5031934;28;20033;-25
2023/03/14 05:32:59;;;;;;;4.10;1.10;;;;;;;;;;5031708;28;20036;-25
2023/03/14 05:35:26;;;;;;;2.85;0.93;;;;;;;;;;5030414;28;20053;-24
2023/03/14 05:37:52;;;;;;;4.70;1.23;;;;;;;;;;5031737;28;20037;-24
2023/03/14 05:40:20;;;;;;;2.25;1.20;;;;;;;;;;5031570;28;20026;-24
2023/03/14 05:42:46;;;;;;;5.57;0.93;;;;;;;;;;5031643;28;20486;-24
2023/03/14 05:45:28;;;;;;;3.90;1.13;;;;;;;;;;5031766;28;20030;-25
2023/03/14 05:48:16;;;;;;;2.10;1.30;;;;;;;;;;5031660;28;20096;-24
2023/03/14 05:50:43;;;;;;;1.92;1.20;;;;;;;;;;5031532;28;20034;-25
2023/03/14 05:53:10;;;;;;;4.22;1.40;;;;;;;;;;5031823;28;20041;-25
2023/03/14 05:55:37;;;;;;;2.45;1.15;;;;;;;;;;5031506;28;20026;-24
2023/03/14 05:58:04;;;;;;;3.20;1.30;;;;;;;;;;5031607;28;20244;-25
2023/03/14 06:00:31;;;;;;;2.00;1.10;;;;;;;;;;5031496;28;20022;-25
2023/03/14 06:02:58;;;;;;;1.45;1.30;;;;;;;;;;5027807;28;20479;-24
2023/03/14 06:05:25;;;;;;;2.08;1.23;;;;;;;;;;5031538;28;20113;-25
2023/03/14 06:07:52;;;;;;;1.23;0.80;;;;;;;;;;5031423;28;20132;-24
2023/03/14 06:10:19;;;;;;;3.80;1.20;;;;;;;;;;5031336;28;20120;-24
2023/03/14 06:12:46;;;;;;;4.55;1.20;;;;;;;;;;5031279;28;20053;-25
2023/03/14 06:15:13;;;;;;;2.28;0.90;;;;;;;;;;5031418;28;20117;-25
2023/03/14 06:17:40;;;;;;;1.77;0.90;;;;;;;;;;5031422;28;20044;-25
2023/03/14 06:20:07;;;;;;;1.55;0.90;;;;;;;;;;5031291;28;20053;-24
2023/03/14 06:22:34;;;;;;;1.58;1.10;;;;;;;;;;5031307;28;20032;-25
2023/03/14 06:25:01;;;;;;;1.83;1.50;;;;;;;;;;5035001;28;20502;-24
2023/03/14 06:27:28;;;;;;;1.67;1.30;;;;;;;;;;5035237;28;20053;-24
2023/03/14 06:29:55;;;;;;;2.15;1.17;;;;;;;;;;5034642;28;20084;-27
2023/03/14 06:32:22;;;;;;;2.25;0.95;;;;;;;;;;5035125;28;20056;-28
2023/03/14 06:34:49;;;;;;;2.25;1.33;;;;;;;;;;5035039;28;20044;-27
2023/03/14 06:37:16;;;;;;;3.63;1.50;;;;;;;;;;5034826;28;20044;-27
2023/03/14 06:39:44;;;;;;;1.95;1.05;;;;;;;;;;5034873;28;20492;-28
2023/03/14 06:42:11;;;;;;;3.53;1.40;;;;;;;;;;5034828;28;20048;-26
2023/03/14 06:44:38;;;;;;;2.67;1.80;;;;;;;;;;5034830;28;20037;-27
2023/03/14 06:47:05;;;;;;;3.17;1.60;;;;;;;;;;5034782;28;20505;-27
2023/03/14 06:49:32;;;;;;;5.60;1.50;;;;;;;;;;5034419;28;20435;-27
2023/03/14 06:51:58;;;;;;;4.10;1.75;;;;;;;;;;5034773;28;20104;-26
2023/03/14 06:54:25;;;;;;;5.40;1.50;;;;;;;;;;5034691;28;20021;-28
2023/03/14 06:56:52;;;;;;;3.60;1.30;;;;;;;;;;5034646;28;20032;-27
2023/03/14 06:59:19;;;;;;;2.55;1.40;;;;;;;;;;5034519;28;20511;-27
2023/03/14 07:01:47;;;;;;;2.92;1.30;;;;;;;;;;5034462;28;20499;-28
2023/03/14 07:04:15;;;;;;;2.60;1.40;;;;;;;;;;5034357;28;20130;-24
2023/03/14 07:06:44;;;;;;;3.55;1.80;;;;;;;;;;5034105;28;20122;-26
2023/03/14 07:09:14;;;;;;;4.30;1.42;;;;;;;;;;5034233;28;20042;-27
2023/03/14 07:11:41;;;;;;;1.98;1.15;;;;;;;;;;5034366;28;20498;-27
2023/03/14 07:14:08;;;;;;;2.50;1.10;;;;;;;;;;5033850;28;20038;-28
2023/03/14 07:16:35;;;;;;;2.25;1.23;;;;;;;;;;5034323;28;20033;-27
2023/03/14 07:19:02;;;;;;;4.68;1.25;;;;;;;;;;5034226;28;20033;-27
2023/03/14 07:21:31;;;;;;;3.15;1.30;;;;;;;;;;5034049;28;20056;-27
2023/03/14 07:23:58;;;;;;;1.88;1.17;;;;;;;;;;5034058;28;20033;-27
2023/03/14 07:26:25;;;;;;;3.38;1.27;;;;;;;;;;5034069;28;20041;-27
2023/03/14 07:28:52;;;;;;;2.08;1.10;;;;;;;;;;5033873;28;20103;-27
2023/03/14 07:31:19;;;;;;;2.30;1.10;;;;;;;;;;5033884;28;20021;-27
2023/03/14 07:33:46;;;;;;;4.03;1.20;;;;;;;;;;5033765;28;20033;-27
2023/03/14 07:36:13;;;;;;;2.72;1.35;;;;;;;;;;5033035;28;20025;-27
2023/03/14 07:38:40;;;;;;;2.00;1.00;;;;;;;;;;5033885;28;20041;-28
2023/03/14 07:41:08;;;;;;;1.20;1.10;;;;;;;;;;5033726;28;20029;-27
2023/03/14 07:43:35;;;;;;;1.92;0.93;;;;;;;;;;5033845;28;20053;-27
2023/03/14 07:46:02;;;;;;;2.65;1.20;;;;;;;;;;5033714;28;20031;-27
2023/03/14 07:48:29;;;;;;;4.07;0.90;;;;;;;;;;5033628;28;20037;-28
2023/03/14 07:50:56;;;;;;;1.77;1.08;;;;;;;;;;5033552;28;20069;-24
2023/03/14 07:53:23;;;;;;;1.50;0.90;;;;;;;;;;5033555;28;20108;-24
2023/03/14 07:55:51;;;;;;;3.55;1.10;;;;;;;;;;5033620;28;20018;-25
2023/03/14 07:58:18;;;;;;;2.03;1.20;;;;;;;;;;5033443;28;20545;-24
2023/03/14 08:00:45;;;;;;;2.35;1.30;;;;;;;;;;5033398;28;20033;-25
2023/03/14 08:03:12;;;;;;;3.05;0.90;;;;;;;;;;5033452;28;20037;-24
2023/03/14 08:05:40;;;;;;;4.00;1.00;;;;;;;;;;5033366;28;20075;-25
2023/03/14 08:08:07;;;;;;;1.05;0.90;;;;;;;;;;5033127;28;20077;-24
2023/03/14 08:10:34;;;;;;;2.60;1.17;;;;;;;;;;5033175;28;20018;-25
2023/03/14 08:13:02;;;;;;;1.20;0.98;;;;;;;;;;5033031;28;20136;-23
2023/03/14 08:15:30;;;;;;;2.17;1.10;;;;;;;;;;5033163;28;20475;-24
2023/03/14 08:17:57;;;;;;;1.65;1.10;;;;;;;;;;5032982;28;20376;-25
2023/03/14 08:20:25;;;;;;;1.60;0.95;;;;;;;;;;5031649;28;20029;-25
2023/03/14 08:22:52;;;;;;;3.92;1.40;;;;;;;;;;5033123;28;20025;-24
2023/03/14 08:25:19;;;;;;;3.25;1.67;;;;;;;;;;5032988;28;20032;-24
2023/03/14 08:27:46;;;;;;;4.30;1.70;;;;;;;;;;5032955;28;20026;-25
2023/03/14 08:30:17;;;;;;;5.63;1.73;;;;;;;;;;5032668;28;20522;-27
2023/03/14 08:32:45;;;;;;;3.00;1.65;;;;;;;;;;5032916;28;20046;-27
2023/03/14 08:35:12;;;;;;;2.60;1.60;;;;;;;;;;5032828;28;20025;-28
2023/03/14 08:37:38;;;;;;;4.90;1.70;;;;;;;;;;5032819;28;20033;-27
2023/03/14 08:40:06;;;;;;;3.35;1.65;;;;;;;;;;5032625;28;20029;-27
2023/03/14 08:42:34;;;;;;;2.83;1.77;;;;;;;;;;5032662;28;20037;-27
2023/03/14 08:45:01;;;;;;;3.35;1.50;;;;;;;;;;5032640;28;20487;-27
2023/03/14 08:47:28;;;;;;;4.05;1.52;;;;;;;;;;5032455;28;20037;-27
2023/03/14 08:49:55;;;;;;;4.38;1.65;;;;;;;;;;5030991;28;20122;-28
2023/03/14 08:52:22;;;;;;;2.13;1.80;;;;;;;;;;5032484;28;20021;-27
2023/03/14 08:54:49;;;;;;;3.03;1.90;;;;;;;;;;5032445;28;20029;-27
2023/03/14 08:57:16;;;;;;;2.55;1.70;;;;;;;;;;5032343;28;20056;-28
2023/03/14 08:59:43;;;;;;;3.03;1.77;;;;;;;;;;5032429;28;20418;-27
2023/03/14 09:02:12;;;;;;;4.05;1.50;;;;;;;;;;5032285;28;20037;-24
2023/03/14 09:04:39;;;;;;;1.92;1.48;;;;;;;;;;5032329;28;20040;-24
2023/03/14 09:07:06;;;;;;;2.28;1.60;;;;;;;;;;5032236;28;20391;-24
2023/03/14 09:09:33;;;;;;;2.65;1.63;;;;;;;;;;5031981;28;20029;-25
2023/03/14 09:12:00;;;;;;;3.15;1.50;;;;;;;;;;5030586;28;20395;-25
2023/03/14 09:14:27;;;;;;;2.47;1.60;;;;;;;;;;5032113;28;20022;-24
2023/03/14 09:16:54;;;;;;;3.08;1.63;;;;;;;;;;5032130;28;20025;-24
2023/03/14 09:19:21;;;;;;;1.20;1.10;;;;;;;;;;5031995;28;20491;-24
2023/03/14 09:21:48;;;;;;;2.42;1.70;;;;;;;;;;5031944;28;20036;-24
2023/03/14 09:24:15;;;;;;;3.50;1.63;;;;;;;;;;5031969;28;20034;-25
2023/03/14 09:26:42;;;;;;;6.15;1.50;;;;;;;;;;5031948;28;20040;-24
2023/03/14 09:29:10;;;;;;;3.17;1.60;;;;;;;;;;5014272;28;20038;-24
2023/03/14 09:31:37;;;;;;;1.95;1.65;;;;;;;;;;5002696;28;20026;-27
2023/03/14 09:34:04;;;;;;;3.05;1.80;;;;;;;;;;5001803;28;20734;-28
2023/03/14 09:36:31;;;;;;;2.63;1.70;;;;;;;;;;5000674;28;20037;-27
2023/03/14 09:38:58;;;;;;;3.28;1.60;;;;;;;;;;4994678;28;20023;-27
2023/03/14 09:41:25;;;;;;;3.53;1.70;;;;;;;;;;4999896;28;20042;-27
2023/03/14 09:44:09;;;;;;;1.85;1.20;;;;;;;;;;5005108;28;20021;-28
2023/03/14 09:46:37;;;;;;;3.40;1.30;;;;;;;;;;5010842;28;20025;-27
2023/03/14 09:49:11;;;;;;;2.80;1.73;;;;;;;;;;5011637;28;20066;-27
2023/03/14 09:51:38;;;;;;;4.78;1.90;;;;;;;;;;5011835;28;20026;-28
2023/03/14 09:54:06;;;;;;;4.28;1.90;;;;;;;;;;5007955;28;20494;-36
2023/03/14 09:56:34;;;;;;;4.47;1.83;;;;;;;;;;5028182;28;20049;-29
2023/03/14 09:59:04;;;;;;;4.97;1.90;;;;;;;;;;5033391;28;20041;-30
2023/03/14 10:01:32;;;;;;;3.97;2.17;;;;;;;;;;5017545;28;20038;-28
2023/03/14 10:04:02;;;;;;;4.88;2.00;;;;;;;;;;5015755;28;20803;-30
2023/03/14 10:06:30;;;;;;;8.18;1.90;;;;;;;;;;5011726;28;20535;-35
2023/03/14 10:08:58;;;;;;;7.68;2.35;;;;;;;;;;5014060;28;20096;-23
2023/03/14 10:11:25;;;;;;;5.35;2.17;;;;;;;;;;5015493;28;20044;-25
2023/03/14 10:14:06;;;;;;;5.90;2.50;;;;;;;;;;5015402;28;20084;-24
2023/03/14 10:16:34;;;;;;;8.68;2.30;;;;;;;;;;5014245;28;20706;-27
2023/03/14 10:19:19;;;;;;;5.88;2.20;;;;;;;;;;5013770;28;20033;-27
2023/03/14 10:21:52;;;;;;;5.18;2.03;;;;;;;;;;5015456;28;20034;-27
2023/03/14 10:24:19;;;;;;;8.07;2.22;;;;;;;;;;5015409;28;20037;-24
2023/03/14 10:26:49;;;;;;;6.07;2.00;;;;;;;;;;5013981;28;20058;-27
2023/03/14 10:29:16;;;;;;;5.85;2.10;;;;;;;;;;5013425;28;20482;-28
2023/03/14 10:31:54;;;;;;;8.45;1.88;;;;;;;;;;5015028;28;20026;-24
2023/03/14 10:34:28;;;;;;;5.15;1.98;;;;;;;;;;5004018;28;20129;-24
2023/03/14 10:37:00;;;;;;;4.25;2.00;;;;;;;;;;5009205;28;20159;-24
2023/03/14 10:39:29;;;;;;;2.70;2.00;;;;;;;;;;5012790;28;20642;-30
2023/03/14 10:42:06;;;;;;;3.38;1.80;;;;;;;;;;5013175;28;20041;-27
2023/03/14 10:44:35;;;;;;;8.57;2.00;;;;;;;;;;5014470;28;20037;-26
2023/03/14 10:47:03;;;;;;;3.45;2.10;;;;;;;;;;5013723;28;20057;-27
2023/03/14 10:49:35;;;;;;;4.40;2.25;;;;;;;;;;5013147;28;20045;-27
2023/03/14 10:52:22;;;;;;;8.57;2.70;;;;;;;;;;5014915;28;20037;-28
2023/03/14 10:54:55;;;;;;;2.58;1.98;;;;;;;;;;5014767;28;20253;-27
2023/03/14 10:57:22;;;;;;;4.78;2.10;;;;;;;;;;5013899;28;20041;-27
2023/03/14 10:59:49;;;;;;;4.20;2.22;;;;;;;;;;5012983;28;20030;-28
2023/03/14 11:02:35;;;;;;;4.45;2.10;;;;;;;;;;5014782;28;20025;-29
2023/03/14 11:05:10;;;;;;;4.70;2.40;;;;;;;;;;5014805;28;20034;-27
2023/03/14 11:07:40;;;;;;;4.38;1.60;;;;;;;;;;5014753;28;20022;-29
2023/03/14 11:10:14;;;;;;;3.20;1.92;;;;;;;;;;5007304;28;20045;-34
2023/03/14 11:12:52;;;;;;;9.80;3.45;;;;;;;;;;5010045;28;20046;-27
2023/03/14 11:15:33;;;;;;;7.40;4.28;;;;;;;;;;5014299;28;20092;-27
2023/03/14 11:18:15;;;;;;;4.65;4.00;;;;;;;;;;5014200;28;20484;-28
2023/03/14 11:20:48;;;;;;;11.52;4.72;;;;;;;;;;5014132;28;20109;-28
2023/03/14 11:23:21;;;;;;;18.45;4.93;;;;;;;;;;5014269;28;20056;-27
2023/03/14 11:26:01;;;;;;;9.80;5.10;;;;;;;;;;5014201;28;20022;-28
2023/03/14 11:28:31;;;;;;;46.00;6.63;;;;;;;;;;5014145;28;20041;-28
2023/03/14 11:31:17;;;;;;;39.30;7.40;;;;;;;;;;5013944;28;20026;-27
2023/03/14 11:33:47;;;;;;;29.60;6.60;;;;;;;;;;5013985;28;20025;-28
2023/03/14 11:36:22;;;;;;;18.73;6.32;;;;;;;;;;5014094;28;20034;-28
2023/03/14 11:38:49;;;;;;;27.27;7.18;;;;;;;;;;5013812;28;20117;-29
2023/03/14 11:41:28;;;;;;;9.38;7.00;;;;;;;;;;5013929;28;20037;-28
2023/03/14 11:43:59;;;;;;;10.68;6.38;;;;;;;;;;5013889;28;20033;-28
2023/03/14 11:46:32;;;;;;;36.30;7.25;;;;;;;;;;5013835;28;20032;-30
2023/03/14 11:49:28;;;;;;;12.25;6.25;;;;;;;;;;5013468;28;20129;-29
2023/03/14 11:52:04;;;;;;;45.78;8.18;;;;;;;;;;4977508;28;20042;-29
2023/03/14 11:54:37;;;;;;;9.50;6.00;;;;;;;;;;5013720;28;20022;-31
2023/03/14 11:57:15;;;;;;;6.60;5.60;;;;;;;;;;5013685;28;20029;-29
2023/03/14 11:59:53;;;;;;;6.63;5.85;;;;;;;;;;5013503;28;20026;-29
2023/03/14 12:02:23;;;;;;;8.93;5.70;;;;;;;;;;5013479;28;20026;-29
2023/03/14 12:05:02;;;;;;;8.18;5.72;;;;;;;;;;5013482;28;20041;-29
2023/03/14 12:07:41;;;;;;;7.65;5.47;;;;;;;;;;5013468;28;20030;-29
2023/03/14 12:10:08;;;;;;;6.95;5.13;;;;;;;;;;5013190;28;20034;-32
2023/03/14 12:12:35;;;;;;;7.68;3.80;;;;;;;;;;5013004;28;20065;-31
2023/03/14 12:15:03;;;;;;;8.43;5.50;;;;;;;;;;5013302;28;20040;-29
2023/03/14 12:17:38;;;;;;;8.60;4.88;;;;;;;;;;5013312;28;20100;-30
2023/03/14 12:20:15;;;;;;;16.23;5.15;;;;;;;;;;5013145;28;20452;-29
2023/03/14 12:22:54;;;;;;;6.93;5.35;;;;;;;;;;5012731;28;20025;-29
2023/03/14 12:25:22;;;;;;;12.52;4.90;;;;;;;;;;5013099;28;20029;-29
2023/03/14 12:27:55;;;;;;;6.80;3.33;;;;;;;;;;5013040;28;20468;-29
2023/03/14 12:30:27;;;;;;;8.88;4.00;;;;;;;;;;5012862;28;20026;-29
2023/03/14 12:33:12;;;;;;;21.93;4.10;;;;;;;;;;5012830;28;20033;-29
2023/03/14 12:35:40;;;;;;;16.88;4.40;;;;;;;;;;5012900;28;20591;-31
2023/03/14 12:38:14;;;;;;;12.18;4.55;;;;;;;;;;5013022;28;20053;-30
2023/03/14 12:41:01;;;;;;;13.73;4.45;;;;;;;;;;5012696;28;20034;-29
2023/03/14 12:43:33;;;;;;;11.25;4.50;;;;;;;;;;5012196;28;20030;-26
2023/03/14 12:46:18;;;;;;;6.38;4.75;;;;;;;;;;5012221;28;20040;-29
2023/03/14 12:48:46;;;;;;;8.52;4.72;;;;;;;;;;5012204;28;20246;-27
2023/03/14 12:51:20;;;;;;;6.57;5.90;;;;;;;;;;5012246;28;20176;-27
2023/03/14 12:54:12;;;;;;;7.40;6.28;;;;;;;;;;5012123;28;20072;-30
2023/03/14 12:56:57;;;;;;;8.88;6.22;;;;;;;;;;5012400;28;20021;-30
2023/03/14 12:59:37;;;;;;;6.65;6.05;;;;;;;;;;5011894;28;20030;-29
2023/03/14 13:02:07;;;;;;;7.55;5.88;;;;;;;;;;5012075;28;20435;-26
2023/03/14 13:04:35;;;;;;;5.80;4.38;;;;;;;;;;5012150;28;20022;-27
2023/03/14 13:07:04;;;;;;;4.38;3.97;;;;;;;;;;5012141;28;20022;-30
2023/03/14 13:09:33;;;;;;;4.97;4.28;;;;;;;;;;5011682;28;20057;-29
2023/03/14 13:12:14;;;;;;;4.20;3.80;;;;;;;;;;5012105;28;20034;-29
2023/03/14 13:14:49;;;;;;;8.02;3.30;;;;;;;;;;5011895;28;20042;-30
2023/03/14 13:17:19;;;;;;;5.28;2.90;;;;;;;;;;5012021;28;20038;-29
2023/03/14 13:19:50;;;;;;;3.97;3.22;;;;;;;;;;5011672;28;20044;-29
2023/03/14 13:22:21;;;;;;;4.55;3.00;;;;;;;;;;5011823;28;20072;-27
2023/03/14 13:24:48;;;;;;;2.60;2.40;;;;;;;;;;5010318;28;20100;-29
2023/03/14 13:27:20;;;;;;;4.93;2.00;;;;;;;;;;5011876;28;20026;-26
2023/03/14 13:29:49;;;;;;;3.60;2.28;;;;;;;;;;5011277;28;20049;-29
2023/03/14 13:32:26;;;;;;;3.45;2.90;;;;;;;;;;5011199;28;20034;-27
2023/03/14 13:34:57;;;;;;;6.40;2.45;;;;;;;;;;5010192;28;20028;-27
2023/03/14 13:37:25;;;;;;;5.10;1.45;;;;;;;;;;5010139;28;20029;-28
2023/03/14 13:39:55;;;;;;;4.97;1.65;;;;;;;;;;5010307;28;20087;-27
2023/03/14 13:42:22;;;;;;;8.18;1.70;;;;;;;;;;5010094;28;20175;-27
2023/03/14 13:44:50;;;;;;;3.55;1.70;;;;;;;;;;5010271;28;20046;-29
2023/03/14 13:47:18;;;;;;;2.08;1.35;;;;;;;;;;5009888;28;20037;-30
2023/03/14 13:49:46;;;;;;;3.13;1.58;;;;;;;;;;5009952;28;20045;-27
2023/03/14 13:52:32;;;;;;;2.30;1.50;;;;;;;;;;5010266;28;20029;-26
2023/03/14 13:55:00;;;;;;;3.25;1.50;;;;;;;;;;5010101;28;20472;-29
2023/03/14 13:57:27;;;;;;;5.43;1.60;;;;;;;;;;5009764;28;20381;-29
2023/03/14 14:00:09;;;;;;;1.65;1.30;;;;;;;;;;5010028;28;20052;-26
2023/03/14 14:02:40;;;;;;;5.80;4.03;;;;;;;;;;5010072;28;20098;-26
2023/03/14 14:05:07;;;;;;;7.75;4.57;;;;;;;;;;5010084;28;20098;-30
2023/03/14 14:07:34;;;;;;;6.10;2.83;;;;;;;;;;5011142;28;20108;-26
2023/03/14 14:10:01;;;;;;;4.10;1.48;;;;;;;;;;5011242;28;20037;-27
2023/03/14 14:12:35;;;;;;;5.60;1.70;;;;;;;;;;5010949;28;20507;-30
2023/03/14 14:15:14;;;;;;;3.08;1.50;;;;;;;;;;5011338;28;20042;-27
2023/03/14 14:17:41;;;;;;;1.58;1.10;;;;;;;;;;4998995;28;20052;-26
2023/03/14 14:20:09;;;;;;;2.10;1.10;;;;;;;;;;5012242;28;20034;-27
2023/03/14 14:22:36;;;;;;;3.72;1.02;;;;;;;;;;5011157;28;20034;-27
2023/03/14 14:25:04;;;;;;;2.33;0.88;;;;;;;;;;5011264;28;20163;-27
2023/03/14 14:27:34;;;;;;;3.38;1.10;;;;;;;;;;5011104;28;20033;-27
2023/03/14 14:30:07;;;;;;;2.92;0.90;;;;;;;;;;5009417;28;20033;-30
2023/03/14 14:32:33;;;;;;;;;;;;;;;;;;5019331;28;20044;-26
2023/03/14 14:35:00;;;;;;;3.92;1.00;;;;;;;;;;5013496;28;19909;-29
2023/03/14 14:37:42;;;;;;;3.13;0.93;;;;;;;;;;5011080;28;20085;-27
2023/03/14 14:40:11;;;;;;;2.92;0.90;;;;;;;;;;5010605;28;20392;-30
2023/03/14 14:42:41;;;;;;;1.67;0.93;;;;;;;;;;5009355;28;20030;-30
2023/03/14 14:45:14;;;;;;;1.58;1.02;;;;;;;;;;5010711;28;20419;-32
2023/03/14 14:47:51;;;;;;;2.28;1.08;;;;;;;;;;5012404;28;20092;-33
2023/03/14 14:50:41;;;;;;;4.68;1.08;;;;;;;;;;5012884;28;20068;-30
2023/03/14 14:53:26;;;;;;;6.43;1.45;;;;;;;;;;5009772;28;20057;-27
2023/03/14 14:55:54;;;;;;;7.35;1.20;;;;;;;;;;5013859;28;20479;-29